sensor_id;sensor_type;location;lat;lon;timestamp;temperature;humidity
2893;DHT22;1456;51.840;12.184;2024-02-26T00:00:31;2.20;99.90
2893;DHT22;1456;51.840;12.184;2024-02-26T00:02:56;2.10;99.90
2893;DHT22;1456;51.840;12.184;2024-02-26T00:05:22;2.10;99.90
2893;DHT22;1456;51.840;12.184;2024-02-26T00:07:47;2.10;99.90
2893;DHT22;1456;51.840;12.184;2024-02-26T00:10:14;2.10;99.90
2893;DHT22;1456;51.840;12.184;2024-02-26T00:12:40;2.10;99.90
2893;DHT22;1456;51.840;12.184;2024-02-26T00:15:07;2.00;99.90
2893;DHT22;1456;51.840;12.184;2024-02-26T00:17:33;2.00;99.90
2893;DHT22;1456;51.840;12.184;2024-02-26T00:19:58;2.00;99.90
2893;DHT22;1456;51.840;12.184;2024-02-26T00:22:26;2.00;99.90
2893;DHT22;1456;51.840;12.184;2024-02-26T00:24:51;2.00;99.90
2893;DHT22;1456;51.840;12.184;2024-02-26T00:27:17;2.00;99.90
2893;DHT22;1456;51.840;12.184;2024-02-26T00:29:43;2.00;99.90
2893;DHT22;1456;51.840;12.184;2024-02-26T00:32:08;1.90;99.90
2893;DHT22;1456;51.840;12.184;2024-02-26T00:34:34;1.90;99.90
2893;DHT22;1456;51.840;12.184;2024-02-26T00:37:00;1.90;99.90
2893;DHT22;1456;51.840;12.184;2024-02-26T00:39:25;1.90;99.90
2893;DHT22;1456;51.840;12.184;2024-02-26T00:41:51;1.80;99.90
2893;DHT22;1456;51.840;12.184;2024-02-26T00:44:17;1.80;99.90
2893;DHT22;1456;51.840;12.184;2024-02-26T00:46:43;1.80;99.90
2893;DHT22;1456;51.840;12.184;2024-02-26T00:49:08;1.80;99.90
2893;DHT22;1456;51.840;12.184;2024-02-26T00:51:34;1.80;99.90
2893;DHT22;1456;51.840;12.184;2024-02-26T00:53:59;1.90;99.90
2893;DHT22;1456;51.840;12.184;2024-02-26T00:56:25;1.80;99.90
2893;DHT22;1456;51.840;12.184;2024-02-26T00:58:51;1.80;99.90
2893;DHT22;1456;51.840;12.184;2024-02-26T01:01:17;1.80;99.90
2893;DHT22;1456;51.840;12.184;2024-02-26T01:03:42;1.80;99.90
2893;DHT22;1456;51.840;12.184;2024-02-26T01:06:08;1.70;99.90
2893;DHT22;1456;51.840;12.184;2024-02-26T01:08:34;1.70;99.90
2893;DHT22;1456;51.840;12.184;2024-02-26T01:11:01;1.70;99.90
2893;DHT22;1456;51.840;12.184;2024-02-26T01:13:26;1.80;99.90
2893;DHT22;1456;51.840;12.184;2024-02-26T01:15:52;1.60;99.90
2893;DHT22;1456;51.840;12.184;2024-02-26T01:18:18;1.60;99.90
2893;DHT22;1456;51.840;12.184;2024-02-26T01:20:43;1.60;99.90
2893;DHT22;1456;51.840;12.184;2024-02-26T01:23:09;1.60;99.90
2893;DHT22;1456;51.840;12.184;2024-02-26T01:25:34;1.60;99.90
2893;DHT22;1456;51.840;12.184;2024-02-26T01:28:00;1.60;99.90
2893;DHT22;1456;51.840;12.184;2024-02-26T01:30:25;1.60;99.90
2893;DHT22;1456;51.840;12.184;2024-02-26T01:32:51;1.70;99.90
2893;DHT22;1456;51.840;12.184;2024-02-26T01:35:17;1.60;99.90
2893;DHT22;1456;51.840;12.184;2024-02-26T01:37:42;1.60;99.90
2893;DHT22;1456;51.840;12.184;2024-02-26T01:40:08;1.60;99.90
2893;DHT22;1456;51.840;12.184;2024-02-26T01:42:35;1.60;99.90
2893;DHT22;1456;51.840;12.184;2024-02-26T01:45:03;1.70;99.90
2893;DHT22;1456;51.840;12.184;2024-02-26T01:47:29;1.70;99.90
2893;DHT22;1456;51.840;12.184;2024-02-26T01:49:55;1.70;99.90
2893;DHT22;1456;51.840;12.184;2024-02-26T01:52:21;1.70;99.90
2893;DHT22;1456;51.840;12.184;2024-02-26T01:54:47;1.80;99.90
2893;DHT22;1456;51.840;12.184;2024-02-26T01:57:14;1.80;99.90
2893;DHT22;1456;51.840;12.184;2024-02-26T01:59:40;1.80;99.90
2893;DHT22;1456;51.840;12.184;2024-02-26T02:02:08;1.80;99.90
2893;DHT22;1456;51.840;12.184;2024-02-26T02:04:35;1.80;99.90
2893;DHT22;1456;51.840;12.184;2024-02-26T02:07:02;1.70;99.90
2893;DHT22;1456;51.840;12.184;2024-02-26T02:09:28;1.80;99.90
2893;DHT22;1456;51.840;12.184;2024-02-26T02:11:54;1.60;99.90
2893;DHT22;1456;51.840;12.184;2024-02-26T02:14:20;1.60;99.90
2893;DHT22;1456;51.840;12.184;2024-02-26T02:16:47;1.60;99.90
2893;DHT22;1456;51.840;12.184;2024-02-26T02:19:13;1.60;99.90
2893;DHT22;1456;51.840;12.184;2024-02-26T02:21:38;1.50;99.90
2893;DHT22;1456;51.840;12.184;2024-02-26T02:24:04;1.50;99.90
2893;DHT22;1456;51.840;12.184;2024-02-26T02:26:30;1.50;99.90
2893;DHT22;1456;51.840;12.184;2024-02-26T02:28:56;1.50;99.90
2893;DHT22;1456;51.840;12.184;2024-02-26T02:31:21;1.40;99.90
2893;DHT22;1456;51.840;12.184;2024-02-26T02:33:48;1.40;99.90
2893;DHT22;1456;51.840;12.184;2024-02-26T02:36:13;1.50;99.90
2893;DHT22;1456;51.840;12.184;2024-02-26T02:38:48;1.40;99.90
2893;DHT22;1456;51.840;12.184;2024-02-26T02:41:15;1.40;99.90
2893;DHT22;1456;51.840;12.184;2024-02-26T02:43:41;1.30;99.90
2893;DHT22;1456;51.840;12.184;2024-02-26T02:46:06;1.30;99.90
2893;DHT22;1456;51.840;12.184;2024-02-26T02:48:32;1.30;99.90
2893;DHT22;1456;51.840;12.184;2024-02-26T02:50:58;1.30;99.90
2893;DHT22;1456;51.840;12.184;2024-02-26T02:53:23;1.30;99.90
2893;DHT22;1456;51.840;12.184;2024-02-26T02:55:49;1.30;99.90
2893;DHT22;1456;51.840;12.184;2024-02-26T02:58:15;1.40;99.90
2893;DHT22;1456;51.840;12.184;2024-02-26T03:00:40;1.50;99.90
2893;DHT22;1456;51.840;12.184;2024-02-26T03:03:06;1.40;99.90
2893;DHT22;1456;51.840;12.184;2024-02-26T03:05:32;1.40;99.90
2893;DHT22;1456;51.840;12.184;2024-02-26T03:07:57;1.40;99.90
2893;DHT22;1456;51.840;12.184;2024-02-26T03:10:23;1.40;99.90
2893;DHT22;1456;51.840;12.184;2024-02-26T03:12:49;1.50;99.90
2893;DHT22;1456;51.840;12.184;2024-02-26T03:15:15;1.40;99.90
2893;DHT22;1456;51.840;12.184;2024-02-26T03:17:41;1.50;99.90
2893;DHT22;1456;51.840;12.184;2024-02-26T03:20:08;1.40;99.90
2893;DHT22;1456;51.840;12.184;2024-02-26T03:22:35;1.40;99.90
2893;DHT22;1456;51.840;12.184;2024-02-26T03:25:00;1.40;99.90
2893;DHT22;1456;51.840;12.184;2024-02-26T03:27:26;1.40;99.90
2893;DHT22;1456;51.840;12.184;2024-02-26T03:29:51;1.40;99.90
2893;DHT22;1456;51.840;12.184;2024-02-26T03:32:18;1.40;99.90
2893;DHT22;1456;51.840;12.184;2024-02-26T03:34:43;1.40;99.90
2893;DHT22;1456;51.840;12.184;2024-02-26T03:37:09;1.40;99.90
2893;DHT22;1456;51.840;12.184;2024-02-26T03:39:36;1.40;99.90
2893;DHT22;1456;51.840;12.184;2024-02-26T03:42:02;1.40;99.90
2893;DHT22;1456;51.840;12.184;2024-02-26T03:44:28;1.40;99.90
2893;DHT22;1456;51.840;12.184;2024-02-26T03:46:53;1.50;99.90
2893;DHT22;1456;51.840;12.184;2024-02-26T03:49:19;1.50;99.90
2893;DHT22;1456;51.840;12.184;2024-02-26T03:51:45;1.50;99.90
2893;DHT22;1456;51.840;12.184;2024-02-26T03:54:10;1.60;99.90
2893;DHT22;1456;51.840;12.184;2024-02-26T03:56:36;1.40;99.90
2893;DHT22;1456;51.840;12.184;2024-02-26T03:59:01;1.40;99.90
2893;DHT22;1456;51.840;12.184;2024-02-26T04:01:28;1.40;99.90
2893;DHT22;1456;51.840;12.184;2024-02-26T04:03:54;1.40;99.90
2893;DHT22;1456;51.840;12.184;2024-02-26T04:06:19;1.40;99.90
2893;DHT22;1456;51.840;12.184;2024-02-26T04:08:47;1.40;99.90
2893;DHT22;1456;51.840;12.184;2024-02-26T04:11:13;1.40;99.90
2893;DHT22;1456;51.840;12.184;2024-02-26T04:13:38;1.30;99.90
2893;DHT22;1456;51.840;12.184;2024-02-26T04:16:05;1.30;99.90
2893;DHT22;1456;51.840;12.184;2024-02-26T04:18:32;1.30;99.90
2893;DHT22;1456;51.840;12.184;2024-02-26T04:20:57;1.20;99.90
2893;DHT22;1456;51.840;12.184;2024-02-26T04:23:23;1.20;99.90
2893;DHT22;1456;51.840;12.184;2024-02-26T04:25:49;1.10;99.90
2893;DHT22;1456;51.840;12.184;2024-02-26T04:28:15;1.10;99.90
2893;DHT22;1456;51.840;12.184;2024-02-26T04:30:41;1.10;99.90
2893;DHT22;1456;51.840;12.184;2024-02-26T04:33:06;1.00;99.90
2893;DHT22;1456;51.840;12.184;2024-02-26T04:35:32;1.00;99.90
2893;DHT22;1456;51.840;12.184;2024-02-26T04:37:58;1.00;99.90
2893;DHT22;1456;51.840;12.184;2024-02-26T04:40:23;1.00;99.90
2893;DHT22;1456;51.840;12.184;2024-02-26T04:42:49;0.90;99.90
2893;DHT22;1456;51.840;12.184;2024-02-26T04:45:15;0.90;99.90
2893;DHT22;1456;51.840;12.184;2024-02-26T04:47:41;0.90;99.90
2893;DHT22;1456;51.840;12.184;2024-02-26T04:50:06;0.90;99.90
2893;DHT22;1456;51.840;12.184;2024-02-26T04:52:32;0.90;99.90
2893;DHT22;1456;51.840;12.184;2024-02-26T04:54:58;1.00;99.90
2893;DHT22;1456;51.840;12.184;2024-02-26T04:57:25;1.00;99.90
2893;DHT22;1456;51.840;12.184;2024-02-26T04:59:51;1.00;99.90
2893;DHT22;1456;51.840;12.184;2024-02-26T05:02:17;1.00;99.90
2893;DHT22;1456;51.840;12.184;2024-02-26T05:04:43;1.00;99.90
2893;DHT22;1456;51.840;12.184;2024-02-26T05:07:08;1.00;99.90
2893;DHT22;1456;51.840;12.184;2024-02-26T05:09:34;1.00;99.90
2893;DHT22;1456;51.840;12.184;2024-02-26T05:12:00;1.00;99.90
2893;DHT22;1456;51.840;12.184;2024-02-26T05:14:26;1.00;99.90
2893;DHT22;1456;51.840;12.184;2024-02-26T05:16:51;1.00;99.90
2893;DHT22;1456;51.840;12.184;2024-02-26T05:19:17;1.00;99.90
2893;DHT22;1456;51.840;12.184;2024-02-26T05:21:43;1.00;99.90
2893;DHT22;1456;51.840;12.184;2024-02-26T05:24:09;1.10;99.90
2893;DHT22;1456;51.840;12.184;2024-02-26T05:26:35;1.10;99.90
2893;DHT22;1456;51.840;12.184;2024-02-26T05:29:01;1.10;99.90
2893;DHT22;1456;51.840;12.184;2024-02-26T05:31:27;1.10;99.90
2893;DHT22;1456;51.840;12.184;2024-02-26T05:33:52;1.10;99.90
2893;DHT22;1456;51.840;12.184;2024-02-26T05:36:22;1.10;99.90
2893;DHT22;1456;51.840;12.184;2024-02-26T05:38:48;1.20;99.90
2893;DHT22;1456;51.840;12.184;2024-02-26T05:41:15;1.10;99.90
2893;DHT22;1456;51.840;12.184;2024-02-26T05:43:42;1.20;99.90
2893;DHT22;1456;51.840;12.184;2024-02-26T05:46:08;1.20;99.90
2893;DHT22;1456;51.840;12.184;2024-02-26T05:48:33;1.20;99.90
2893;DHT22;1456;51.840;12.184;2024-02-26T05:50:59;1.20;99.90
2893;DHT22;1456;51.840;12.184;2024-02-26T05:53:25;1.20;99.90
2893;DHT22;1456;51.840;12.184;2024-02-26T05:55:50;1.20;99.90
2893;DHT22;1456;51.840;12.184;2024-02-26T05:58:16;1.20;99.90
2893;DHT22;1456;51.840;12.184;2024-02-26T06:00:42;1.20;99.90
2893;DHT22;1456;51.840;12.184;2024-02-26T06:03:07;1.20;99.90
2893;DHT22;1456;51.840;12.184;2024-02-26T06:05:33;1.20;99.90
2893;DHT22;1456;51.840;12.184;2024-02-26T06:07:58;1.20;99.90
2893;DHT22;1456;51.840;12.184;2024-02-26T06:10:24;1.20;99.90
2893;DHT22;1456;51.840;12.184;2024-02-26T06:12:50;1.30;99.90
2893;DHT22;1456;51.840;12.184;2024-02-26T06:15:15;1.20;99.90
2893;DHT22;1456;51.840;12.184;2024-02-26T06:17:41;1.30;99.90
2893;DHT22;1456;51.840;12.184;2024-02-26T06:20:07;1.30;99.90
2893;DHT22;1456;51.840;12.184;2024-02-26T06:22:37;1.40;99.90
2893;DHT22;1456;51.840;12.184;2024-02-26T06:25:02;1.50;99.90
2893;DHT22;1456;51.840;12.184;2024-02-26T06:27:28;1.60;99.90
2893;DHT22;1456;51.840;12.184;2024-02-26T06:29:54;1.80;99.90
2893;DHT22;1456;51.840;12.184;2024-02-26T06:32:19;1.80;99.90
2893;DHT22;1456;51.840;12.184;2024-02-26T06:34:45;1.90;99.90
2893;DHT22;1456;51.840;12.184;2024-02-26T06:37:10;2.00;99.90
2893;DHT22;1456;51.840;12.184;2024-02-26T06:39:36;2.10;99.90
2893;DHT22;1456;51.840;12.184;2024-02-26T06:42:03;2.20;99.90
2893;DHT22;1456;51.840;12.184;2024-02-26T06:44:29;2.30;99.90
2893;DHT22;1456;51.840;12.184;2024-02-26T06:47:00;2.50;99.90
2893;DHT22;1456;51.840;12.184;2024-02-26T06:49:29;2.60;99.90
2893;DHT22;1456;51.840;12.184;2024-02-26T06:51:55;2.70;99.90
2893;DHT22;1456;51.840;12.184;2024-02-26T06:54:21;2.90;99.90
2893;DHT22;1456;51.840;12.184;2024-02-26T06:56:46;3.00;99.90
2893;DHT22;1456;51.840;12.184;2024-02-26T06:59:12;3.00;99.90
2893;DHT22;1456;51.840;12.184;2024-02-26T07:01:41;3.10;99.90
2893;DHT22;1456;51.840;12.184;2024-02-26T07:04:12;3.30;99.90
2893;DHT22;1456;51.840;12.184;2024-02-26T07:06:38;3.40;99.90
2893;DHT22;1456;51.840;12.184;2024-02-26T07:09:03;3.50;99.90
2893;DHT22;1456;51.840;12.184;2024-02-26T07:11:29;3.70;99.90
2893;DHT22;1456;51.840;12.184;2024-02-26T07:13:55;3.90;99.90
2893;DHT22;1456;51.840;12.184;2024-02-26T07:16:20;4.10;99.90
2893;DHT22;1456;51.840;12.184;2024-02-26T07:18:46;4.20;99.90
2893;DHT22;1456;51.840;12.184;2024-02-26T07:21:12;4.50;99.90
2893;DHT22;1456;51.840;12.184;2024-02-26T07:23:38;4.60;99.90
2893;DHT22;1456;51.840;12.184;2024-02-26T07:26:03;4.90;99.90
2893;DHT22;1456;51.840;12.184;2024-02-26T07:28:29;5.20;99.90
2893;DHT22;1456;51.840;12.184;2024-02-26T07:30:55;5.50;99.90
2893;DHT22;1456;51.840;12.184;2024-02-26T07:33:21;5.50;99.90
2893;DHT22;1456;51.840;12.184;2024-02-26T07:35:46;5.70;99.90
2893;DHT22;1456;51.840;12.184;2024-02-26T07:38:12;5.90;99.90
2893;DHT22;1456;51.840;12.184;2024-02-26T07:40:39;6.00;99.90
2893;DHT22;1456;51.840;12.184;2024-02-26T07:43:04;6.00;99.90
2893;DHT22;1456;51.840;12.184;2024-02-26T07:45:30;6.20;99.90
2893;DHT22;1456;51.840;12.184;2024-02-26T07:47:58;6.20;99.90
2893;DHT22;1456;51.840;12.184;2024-02-26T07:50:23;6.30;99.90
2893;DHT22;1456;51.840;12.184;2024-02-26T07:52:49;6.50;99.90
2893;DHT22;1456;51.840;12.184;2024-02-26T07:55:16;6.40;99.90
2893;DHT22;1456;51.840;12.184;2024-02-26T07:57:42;6.40;99.90
2893;DHT22;1456;51.840;12.184;2024-02-26T08:00:09;6.40;99.90
2893;DHT22;1456;51.840;12.184;2024-02-26T08:02:38;6.40;99.90
2893;DHT22;1456;51.840;12.184;2024-02-26T08:05:05;6.60;99.90
2893;DHT22;1456;51.840;12.184;2024-02-26T08:07:30;6.50;99.90
2893;DHT22;1456;51.840;12.184;2024-02-26T08:09:56;6.70;99.90
2893;DHT22;1456;51.840;12.184;2024-02-26T08:12:22;6.70;99.90
2893;DHT22;1456;51.840;12.184;2024-02-26T08:14:47;6.80;99.90
2893;DHT22;1456;51.840;12.184;2024-02-26T08:17:13;7.10;99.90
2893;DHT22;1456;51.840;12.184;2024-02-26T08:19:38;7.40;99.90
2893;DHT22;1456;51.840;12.184;2024-02-26T08:22:04;7.80;99.90
2893;DHT22;1456;51.840;12.184;2024-02-26T08:24:30;7.90;99.90
2893;DHT22;1456;51.840;12.184;2024-02-26T08:26:55;8.00;99.90
2893;DHT22;1456;51.840;12.184;2024-02-26T08:29:21;8.20;99.90
2893;DHT22;1456;51.840;12.184;2024-02-26T08:31:46;8.50;99.90
2893;DHT22;1456;51.840;12.184;2024-02-26T08:34:12;8.70;99.90
2893;DHT22;1456;51.840;12.184;2024-02-26T08:36:37;8.80;99.90
2893;DHT22;1456;51.840;12.184;2024-02-26T08:39:03;8.80;99.90
2893;DHT22;1456;51.840;12.184;2024-02-26T08:41:29;8.80;99.90
2893;DHT22;1456;51.840;12.184;2024-02-26T08:43:55;8.70;99.90
2893;DHT22;1456;51.840;12.184;2024-02-26T08:46:21;9.00;99.90
2893;DHT22;1456;51.840;12.184;2024-02-26T08:48:46;9.20;99.90
2893;DHT22;1456;51.840;12.184;2024-02-26T08:51:12;9.60;99.90
2893;DHT22;1456;51.840;12.184;2024-02-26T08:53:38;9.80;99.90
2893;DHT22;1456;51.840;12.184;2024-02-26T08:56:05;10.00;99.90
2893;DHT22;1456;51.840;12.184;2024-02-26T08:58:31;10.20;99.90
2893;DHT22;1456;51.840;12.184;2024-02-26T09:00:56;10.50;99.90
2893;DHT22;1456;51.840;12.184;2024-02-26T09:03:22;10.60;99.90
2893;DHT22;1456;51.840;12.184;2024-02-26T09:05:48;10.70;99.90
2893;DHT22;1456;51.840;12.184;2024-02-26T09:08:14;10.80;99.90
2893;DHT22;1456;51.840;12.184;2024-02-26T09:10:40;10.70;99.90
2893;DHT22;1456;51.840;12.184;2024-02-26T09:13:05;10.80;99.90
2893;DHT22;1456;51.840;12.184;2024-02-26T09:15:31;11.00;99.90
2893;DHT22;1456;51.840;12.184;2024-02-26T09:17:57;11.20;99.90
2893;DHT22;1456;51.840;12.184;2024-02-26T09:20:22;11.30;99.90
2893;DHT22;1456;51.840;12.184;2024-02-26T09:22:49;11.30;99.90
2893;DHT22;1456;51.840;12.184;2024-02-26T09:25:16;11.40;99.90
2893;DHT22;1456;51.840;12.184;2024-02-26T09:27:43;11.50;99.90
2893;DHT22;1456;51.840;12.184;2024-02-26T09:30:10;11.60;99.90
2893;DHT22;1456;51.840;12.184;2024-02-26T09:32:35;11.70;99.90
2893;DHT22;1456;51.840;12.184;2024-02-26T09:35:01;11.80;99.90
2893;DHT22;1456;51.840;12.184;2024-02-26T09:37:27;12.00;99.90
2893;DHT22;1456;51.840;12.184;2024-02-26T09:39:52;12.10;99.90
2893;DHT22;1456;51.840;12.184;2024-02-26T09:42:19;12.10;99.90
2893;DHT22;1456;51.840;12.184;2024-02-26T09:44:45;12.20;99.90
2893;DHT22;1456;51.840;12.184;2024-02-26T09:47:12;12.40;99.90
2893;DHT22;1456;51.840;12.184;2024-02-26T09:49:47;12.50;99.60
2893;DHT22;1456;51.840;12.184;2024-02-26T09:52:14;12.50;99.20
2893;DHT22;1456;51.840;12.184;2024-02-26T09:54:41;12.50;99.30
2893;DHT22;1456;51.840;12.184;2024-02-26T09:57:09;12.50;99.50
2893;DHT22;1456;51.840;12.184;2024-02-26T09:59:42;12.60;99.60
2893;DHT22;1456;51.840;12.184;2024-02-26T10:02:14;12.50;99.10
2893;DHT22;1456;51.840;12.184;2024-02-26T10:04:40;12.50;99.30
2893;DHT22;1456;51.840;12.184;2024-02-26T10:07:10;12.60;98.80
2893;DHT22;1456;51.840;12.184;2024-02-26T10:09:36;12.60;98.60
2893;DHT22;1456;51.840;12.184;2024-02-26T10:12:03;12.70;98.70
2893;DHT22;1456;51.840;12.184;2024-02-26T10:14:30;12.90;99.10
2893;DHT22;1456;51.840;12.184;2024-02-26T10:16:56;13.00;98.40
2893;DHT22;1456;51.840;12.184;2024-02-26T10:19:26;13.00;99.10
2893;DHT22;1456;51.840;12.184;2024-02-26T10:21:59;13.30;99.00
2893;DHT22;1456;51.840;12.184;2024-02-26T10:24:26;13.50;98.10
2893;DHT22;1456;51.840;12.184;2024-02-26T10:26:53;13.80;97.80
2893;DHT22;1456;51.840;12.184;2024-02-26T10:29:20;14.00;97.80
2893;DHT22;1456;51.840;12.184;2024-02-26T10:31:46;14.30;97.10
2893;DHT22;1456;51.840;12.184;2024-02-26T10:34:13;14.50;98.00
2893;DHT22;1456;51.840;12.184;2024-02-26T10:36:40;14.80;96.70
2893;DHT22;1456;51.840;12.184;2024-02-26T10:39:06;14.80;96.60
2893;DHT22;1456;51.840;12.184;2024-02-26T10:41:35;14.90;96.20
2893;DHT22;1456;51.840;12.184;2024-02-26T10:44:01;14.80;96.10
2893;DHT22;1456;51.840;12.184;2024-02-26T10:46:27;14.70;96.20
2893;DHT22;1456;51.840;12.184;2024-02-26T10:48:53;14.70;96.00
2893;DHT22;1456;51.840;12.184;2024-02-26T10:51:27;14.80;95.50
2893;DHT22;1456;51.840;12.184;2024-02-26T10:53:56;14.80;95.50
2893;DHT22;1456;51.840;12.184;2024-02-26T10:56:28;14.70;95.40
2893;DHT22;1456;51.840;12.184;2024-02-26T10:58:55;14.60;95.20
2893;DHT22;1456;51.840;12.184;2024-02-26T11:01:21;14.80;95.70
2893;DHT22;1456;51.840;12.184;2024-02-26T11:03:52;15.00;95.70
2893;DHT22;1456;51.840;12.184;2024-02-26T11:06:19;15.20;95.60
2893;DHT22;1456;51.840;12.184;2024-02-26T11:08:52;15.30;95.40
2893;DHT22;1456;51.840;12.184;2024-02-26T11:11:19;15.20;94.20
2893;DHT22;1456;51.840;12.184;2024-02-26T11:13:47;14.90;94.20
2893;DHT22;1456;51.840;12.184;2024-02-26T11:16:21;14.90;94.80
2893;DHT22;1456;51.840;12.184;2024-02-26T11:18:48;14.80;93.60
2893;DHT22;1456;51.840;12.184;2024-02-26T11:21:17;14.70;94.40
2893;DHT22;1456;51.840;12.184;2024-02-26T11:23:53;14.70;94.50
2893;DHT22;1456;51.840;12.184;2024-02-26T11:26:19;14.70;94.10
2893;DHT22;1456;51.840;12.184;2024-02-26T11:28:46;14.80;94.50
2893;DHT22;1456;51.840;12.184;2024-02-26T11:31:12;14.90;93.80
2893;DHT22;1456;51.840;12.184;2024-02-26T11:33:39;14.80;94.20
2893;DHT22;1456;51.840;12.184;2024-02-26T11:36:09;14.80;93.70
2893;DHT22;1456;51.840;12.184;2024-02-26T11:38:35;14.90;93.80
2893;DHT22;1456;51.840;12.184;2024-02-26T11:41:01;14.80;94.00
2893;DHT22;1456;51.840;12.184;2024-02-26T11:43:49;14.70;93.70
2893;DHT22;1456;51.840;12.184;2024-02-26T11:46:32;14.60;93.70
2893;DHT22;1456;51.840;12.184;2024-02-26T11:49:03;14.70;94.60
2893;DHT22;1456;51.840;12.184;2024-02-26T11:51:34;14.80;94.10
2893;DHT22;1456;51.840;12.184;2024-02-26T11:54:00;15.00;94.50
2893;DHT22;1456;51.840;12.184;2024-02-26T11:56:26;15.30;94.20
2893;DHT22;1456;51.840;12.184;2024-02-26T11:59:11;15.50;93.70
2893;DHT22;1456;51.840;12.184;2024-02-26T12:01:42;15.70;93.30
2893;DHT22;1456;51.840;12.184;2024-02-26T12:04:21;15.90;93.50
2893;DHT22;1456;51.840;12.184;2024-02-26T12:06:51;16.00;92.90
2893;DHT22;1456;51.840;12.184;2024-02-26T12:09:39;16.20;92.60
2893;DHT22;1456;51.840;12.184;2024-02-26T12:12:10;16.00;92.20
2893;DHT22;1456;51.840;12.184;2024-02-26T12:14:39;15.80;92.50
2893;DHT22;1456;51.840;12.184;2024-02-26T12:17:07;15.70;92.80
2893;DHT22;1456;51.840;12.184;2024-02-26T12:19:40;15.60;92.90
2893;DHT22;1456;51.840;12.184;2024-02-26T12:22:07;15.50;92.90
2893;DHT22;1456;51.840;12.184;2024-02-26T12:24:33;15.50;92.60
2893;DHT22;1456;51.840;12.184;2024-02-26T12:26:59;15.10;93.20
2893;DHT22;1456;51.840;12.184;2024-02-26T12:29:24;15.10;93.40
2893;DHT22;1456;51.840;12.184;2024-02-26T12:31:50;15.20;93.60
2893;DHT22;1456;51.840;12.184;2024-02-26T12:34:16;15.30;93.40
2893;DHT22;1456;51.840;12.184;2024-02-26T12:36:42;15.10;93.20
2893;DHT22;1456;51.840;12.184;2024-02-26T12:39:08;15.00;92.90
2893;DHT22;1456;51.840;12.184;2024-02-26T12:41:35;14.70;93.10
2893;DHT22;1456;51.840;12.184;2024-02-26T12:44:01;14.60;93.50
2893;DHT22;1456;51.840;12.184;2024-02-26T12:46:27;14.50;93.90
2893;DHT22;1456;51.840;12.184;2024-02-26T12:48:55;14.40;93.60
2893;DHT22;1456;51.840;12.184;2024-02-26T12:51:23;14.30;93.90
2893;DHT22;1456;51.840;12.184;2024-02-26T12:53:49;14.40;94.30
2893;DHT22;1456;51.840;12.184;2024-02-26T12:56:18;14.40;94.00
2893;DHT22;1456;51.840;12.184;2024-02-26T12:58:44;14.30;93.70
2893;DHT22;1456;51.840;12.184;2024-02-26T13:01:14;14.30;93.80
2893;DHT22;1456;51.840;12.184;2024-02-26T13:03:40;14.30;94.10
2893;DHT22;1456;51.840;12.184;2024-02-26T13:06:06;14.40;94.10
2893;DHT22;1456;51.840;12.184;2024-02-26T13:08:32;14.50;93.90
2893;DHT22;1456;51.840;12.184;2024-02-26T13:11:01;14.50;94.20
2893;DHT22;1456;51.840;12.184;2024-02-26T13:13:30;14.50;93.60
2893;DHT22;1456;51.840;12.184;2024-02-26T13:16:08;14.80;93.60
2893;DHT22;1456;51.840;12.184;2024-02-26T13:18:34;14.90;93.60
2893;DHT22;1456;51.840;12.184;2024-02-26T13:21:11;14.80;93.30
2893;DHT22;1456;51.840;12.184;2024-02-26T13:23:38;15.00;93.60
2893;DHT22;1456;51.840;12.184;2024-02-26T13:26:04;14.90;93.40
2893;DHT22;1456;51.840;12.184;2024-02-26T13:28:30;15.20;93.50
2893;DHT22;1456;51.840;12.184;2024-02-26T13:30:57;15.30;92.40
2893;DHT22;1456;51.840;12.184;2024-02-26T13:33:24;15.30;92.60
2893;DHT22;1456;51.840;12.184;2024-02-26T13:35:50;15.30;92.30
2893;DHT22;1456;51.840;12.184;2024-02-26T13:38:16;15.20;91.80
2893;DHT22;1456;51.840;12.184;2024-02-26T13:40:42;15.00;92.60
2893;DHT22;1456;51.840;12.184;2024-02-26T13:43:08;14.80;92.40
2893;DHT22;1456;51.840;12.184;2024-02-26T13:45:35;14.70;92.30
2893;DHT22;1456;51.840;12.184;2024-02-26T13:48:05;14.80;92.70
2893;DHT22;1456;51.840;12.184;2024-02-26T13:50:32;14.90;92.40
2893;DHT22;1456;51.840;12.184;2024-02-26T13:52:57;14.70;92.30
2893;DHT22;1456;51.840;12.184;2024-02-26T13:55:26;14.90;92.50
2893;DHT22;1456;51.840;12.184;2024-02-26T13:57:54;15.20;92.30
2893;DHT22;1456;51.840;12.184;2024-02-26T14:00:20;15.50;92.30
2893;DHT22;1456;51.840;12.184;2024-02-26T14:02:46;16.20;92.20
2893;DHT22;1456;51.840;12.184;2024-02-26T14:05:12;16.70;91.50
2893;DHT22;1456;51.840;12.184;2024-02-26T14:07:38;16.80;91.00
2893;DHT22;1456;51.840;12.184;2024-02-26T14:10:04;17.10;91.00
2893;DHT22;1456;51.840;12.184;2024-02-26T14:12:30;17.10;90.20
2893;DHT22;1456;51.840;12.184;2024-02-26T14:14:56;16.90;90.50
2893;DHT22;1456;51.840;12.184;2024-02-26T14:17:24;16.90;90.40
2893;DHT22;1456;51.840;12.184;2024-02-26T14:19:50;16.90;90.60
2893;DHT22;1456;51.840;12.184;2024-02-26T14:22:15;17.00;90.10
2893;DHT22;1456;51.840;12.184;2024-02-26T14:24:42;17.30;90.10
2893;DHT22;1456;51.840;12.184;2024-02-26T14:27:12;17.70;90.50
2893;DHT22;1456;51.840;12.184;2024-02-26T14:29:41;17.70;89.50
2893;DHT22;1456;51.840;12.184;2024-02-26T14:32:11;17.40;90.00
2893;DHT22;1456;51.840;12.184;2024-02-26T14:34:37;17.20;90.20
2893;DHT22;1456;51.840;12.184;2024-02-26T14:37:03;16.80;90.30
2893;DHT22;1456;51.840;12.184;2024-02-26T14:39:29;16.40;90.20
2893;DHT22;1456;51.840;12.184;2024-02-26T14:41:56;16.10;90.40
2893;DHT22;1456;51.840;12.184;2024-02-26T14:44:23;15.80;91.00
2893;DHT22;1456;51.840;12.184;2024-02-26T14:46:48;15.30;90.90
2893;DHT22;1456;51.840;12.184;2024-02-26T14:49:14;15.00;91.40
2893;DHT22;1456;51.840;12.184;2024-02-26T14:51:39;14.50;91.00
2893;DHT22;1456;51.840;12.184;2024-02-26T14:54:05;14.10;91.90
2893;DHT22;1456;51.840;12.184;2024-02-26T14:56:31;13.70;92.00
2893;DHT22;1456;51.840;12.184;2024-02-26T14:58:56;13.40;92.80
2893;DHT22;1456;51.840;12.184;2024-02-26T15:01:23;13.20;93.10
2893;DHT22;1456;51.840;12.184;2024-02-26T15:03:49;13.10;92.90
2893;DHT22;1456;51.840;12.184;2024-02-26T15:06:14;12.90;93.10
2893;DHT22;1456;51.840;12.184;2024-02-26T15:08:40;13.00;93.50
2893;DHT22;1456;51.840;12.184;2024-02-26T15:11:06;13.00;93.30
2893;DHT22;1456;51.840;12.184;2024-02-26T15:13:33;12.90;92.90
2893;DHT22;1456;51.840;12.184;2024-02-26T15:15:58;12.90;93.00
2893;DHT22;1456;51.840;12.184;2024-02-26T15:18:24;12.80;93.00
2893;DHT22;1456;51.840;12.184;2024-02-26T15:20:51;12.70;93.60
2893;DHT22;1456;51.840;12.184;2024-02-26T15:23:16;12.80;93.70
2893;DHT22;1456;51.840;12.184;2024-02-26T15:25:43;12.90;93.50
2893;DHT22;1456;51.840;12.184;2024-02-26T15:28:09;12.90;93.20
2893;DHT22;1456;51.840;12.184;2024-02-26T15:30:39;12.90;93.20
2893;DHT22;1456;51.840;12.184;2024-02-26T15:33:05;12.90;93.30
2893;DHT22;1456;51.840;12.184;2024-02-26T15:35:30;12.70;92.90
2893;DHT22;1456;51.840;12.184;2024-02-26T15:37:56;12.50;93.30
2893;DHT22;1456;51.840;12.184;2024-02-26T15:40:26;12.50;93.40
2893;DHT22;1456;51.840;12.184;2024-02-26T15:42:52;12.50;93.60
2893;DHT22;1456;51.840;12.184;2024-02-26T15:45:17;12.50;93.00
2893;DHT22;1456;51.840;12.184;2024-02-26T15:47:43;12.30;93.30
2893;DHT22;1456;51.840;12.184;2024-02-26T15:50:09;12.30;93.50